createdAt,value
2022-12-03T00:01:46.544Z,-2.40
2022-12-03T00:05:55.466Z,-2.30
2022-12-03T00:09:57.368Z,-2.40
2022-12-03T00:13:59.281Z,-2.30
2022-12-03T00:18:02.112Z,-2.30
2022-12-03T00:22:16.877Z,-2.30
2022-12-03T00:26:18.862Z,-2.20
2022-12-03T00:30:22.115Z,-2.40
2022-12-03T00:34:26.704Z,-2.40
2022-12-03T00:38:38.071Z,-2.40
2022-12-03T00:42:47.113Z,-2.30
2022-12-03T00:46:50.172Z,-2.40
2022-12-03T00:50:55.138Z,-2.40
2022-12-03T00:55:06.708Z,-2.40
2022-12-03T00:59:08.774Z,-2.40
2022-12-03T01:03:10.694Z,-2.50
2022-12-03T01:07:12.848Z,-2.40
2022-12-03T01:15:53.761Z,-2.40
2022-12-03T01:20:05.193Z,-2.30
2022-12-03T01:24:07.473Z,-2.40
2022-12-03T01:28:09.399Z,-2.40
2022-12-03T01:32:16.909Z,-2.50
2022-12-03T01:36:19.020Z,-2.50
2022-12-03T01:40:22.422Z,-2.40
2022-12-03T01:44:52.407Z,-2.40
2022-12-03T01:49:50.491Z,-2.40
2022-12-03T01:54:46.330Z,-2.40
2022-12-03T01:58:48.729Z,-2.40
2022-12-03T02:03:11.548Z,-2.30
2022-12-03T02:07:26.156Z,-2.40
2022-12-03T02:11:35.696Z,-2.40
2022-12-03T02:15:40.046Z,-2.40
2022-12-03T02:19:41.962Z,-2.30
2022-12-03T02:23:44.072Z,-2.40
2022-12-03T02:27:47.243Z,-2.40
2022-12-03T02:31:49.563Z,-2.40
2022-12-03T02:36:04.402Z,-2.30
2022-12-03T02:40:11.405Z,-2.40
2022-12-03T02:44:13.434Z,-2.40
2022-12-03T02:48:24.665Z,-2.40
2022-12-03T02:52:35.171Z,-2.40
2022-12-03T02:56:40.715Z,-2.40
2022-12-03T03:00:44.382Z,-2.50
2022-12-03T03:04:46.508Z,-2.30
2022-12-03T03:08:48.819Z,-2.50
2022-12-03T03:12:54.423Z,-2.40
2022-12-03T03:17:12.976Z,-2.40
2022-12-03T03:21:14.908Z,-2.30
2022-12-03T03:25:21.227Z,-2.40
2022-12-03T03:29:23.133Z,-2.30
2022-12-03T03:33:46.258Z,-2.40
2022-12-03T03:37:48.384Z,-2.50
2022-12-03T03:42:15.474Z,-2.40
2022-12-03T03:46:19.629Z,-2.40
2022-12-03T03:50:22.149Z,-2.40
2022-12-03T03:54:24.637Z,-2.50
2022-12-03T03:58:26.654Z,-2.40
2022-12-03T04:02:48.067Z,-2.40
2022-12-03T04:06:55.626Z,-2.40
2022-12-03T04:11:16.004Z,-2.40
2022-12-03T04:15:18.162Z,-2.40
2022-12-03T04:19:26.128Z,-2.50
2022-12-03T04:23:53.264Z,-2.40
2022-12-03T04:28:19.528Z,-2.50
2022-12-03T04:32:43.191Z,-2.50
2022-12-03T04:36:45.098Z,-2.30
2022-12-03T04:41:07.738Z,-2.30
2022-12-03T04:45:14.601Z,-2.40
2022-12-03T04:49:17.814Z,-2.50
2022-12-03T04:53:25.521Z,-2.50
2022-12-03T04:57:27.388Z,-2.50
2022-12-03T05:01:29.437Z,-2.40
2022-12-03T05:05:31.444Z,-2.50
2022-12-03T05:09:59.323Z,-2.50
2022-12-03T05:14:27.145Z,-2.40
2022-12-03T05:19:46.106Z,-2.40
2022-12-03T05:23:48.208Z,-2.40
2022-12-03T05:27:50.255Z,-2.50
2022-12-03T05:31:52.317Z,-2.50
2022-12-03T05:35:54.387Z,-2.50
2022-12-03T05:39:56.299Z,-2.50
2022-12-03T05:43:58.167Z,-2.40
2022-12-03T05:48:01.998Z,-2.40
2022-12-03T05:52:04.004Z,-2.40
2022-12-03T05:56:32.343Z,-2.40
2022-12-03T06:00:42.750Z,-2.40
2022-12-03T06:04:49.562Z,-2.30
2022-12-03T06:08:55.659Z,-2.30
2022-12-03T06:12:57.670Z,-2.30
2022-12-03T06:17:22.652Z,-2.30
2022-12-03T06:21:24.624Z,-2.30
2022-12-03T06:25:27.705Z,-2.20
2022-12-03T06:29:29.715Z,-2.20
2022-12-03T06:33:33.920Z,-2.20
2022-12-03T06:37:35.952Z,-2.30
2022-12-03T06:41:37.858Z,-2.30
2022-12-03T06:46:07.243Z,-2.30
2022-12-03T06:50:15.369Z,-2.20
2022-12-03T06:54:17.378Z,-2.30
2022-12-03T06:58:19.254Z,-2.30
2022-12-03T07:02:22.910Z,-2.20
2022-12-03T07:06:24.970Z,-2.20
2022-12-03T07:10:26.840Z,-2.10
2022-12-03T07:14:28.724Z,-2.20
2022-12-03T07:18:31.630Z,-2.10
2022-12-03T07:23:16.326Z,-2.10
2022-12-03T07:27:18.371Z,-2.10
2022-12-03T07:31:41.264Z,-2.00
2022-12-03T07:35:43.208Z,-2.00
2022-12-03T07:39:45.092Z,-2.00
2022-12-03T07:43:55.296Z,-2.00
2022-12-03T07:47:57.538Z,-1.90
2022-12-03T07:51:59.511Z,-1.90
2022-12-03T07:56:02.838Z,-1.90
2022-12-03T08:00:13.027Z,-1.80
2022-12-03T08:04:19.193Z,-1.90
2022-12-03T08:08:21.297Z,-1.80
2022-12-03T08:12:42.344Z,-1.80
2022-12-03T08:17:06.147Z,-1.80
2022-12-03T08:21:15.089Z,-1.70
2022-12-03T08:25:30.419Z,-1.70
2022-12-03T08:29:33.760Z,-1.70
2022-12-03T08:33:39.205Z,-1.70
2022-12-03T08:37:41.772Z,-1.70
2022-12-03T08:42:02.274Z,-1.60
2022-12-03T08:46:19.261Z,-1.60
2022-12-03T08:50:31.332Z,-1.60
2022-12-03T08:54:58.859Z,-1.50
2022-12-03T08:59:20.540Z,-1.60
2022-12-03T09:03:24.801Z,-1.50
2022-12-03T09:07:37.171Z,-1.60
2022-12-03T09:11:39.563Z,-1.50
2022-12-03T09:15:59.762Z,-1.50
2022-12-03T09:20:05.399Z,-1.40
2022-12-03T09:24:07.712Z,-1.40
2022-12-03T09:28:09.592Z,-1.40
2022-12-03T09:32:28.208Z,-1.40
2022-12-03T09:36:30.219Z,-1.30
2022-12-03T09:40:32.093Z,-1.30
2022-12-03T09:44:38.576Z,-1.30
2022-12-03T09:48:40.904Z,-1.30
2022-12-03T09:52:45.600Z,-1.20
2022-12-03T09:56:47.781Z,-1.30
2022-12-03T10:00:54.969Z,-1.20
2022-12-03T10:04:58.429Z,-1.20
2022-12-03T10:09:00.875Z,-1.20
2022-12-03T10:13:04.490Z,-1.10
2022-12-03T10:17:33.233Z,-1.10
2022-12-03T10:21:37.941Z,-1.10
2022-12-03T10:26:08.904Z,-1.00
2022-12-03T10:30:19.847Z,-1.00
2022-12-03T10:35:12.936Z,-1.00
2022-12-03T10:39:19.620Z,-1.00
2022-12-03T10:43:24.112Z,-0.90
2022-12-03T10:47:26.317Z,-0.90
2022-12-03T10:52:25.296Z,-1.00
2022-12-03T10:56:27.920Z,-1.00
2022-12-03T11:00:30.027Z,-0.90
2022-12-03T11:04:58.395Z,-1.00
2022-12-03T11:09:31.843Z,-1.00
2022-12-03T11:13:33.639Z,-0.90
2022-12-03T11:17:41.668Z,-1.00
2022-12-03T11:22:29.104Z,-0.90
2022-12-03T11:26:31.157Z,-0.90
2022-12-03T11:30:51.581Z,-0.90
2022-12-03T11:34:54.905Z,-0.90
2022-12-03T11:45:11.165Z,-0.90
2022-12-03T11:49:51.974Z,-0.90
2022-12-03T11:53:58.637Z,-0.90
2022-12-03T11:58:03.512Z,-0.90
2022-12-03T12:02:21.593Z,-0.90
2022-12-03T12:06:23.521Z,-0.80
2022-12-03T12:10:48.821Z,-0.80
2022-12-03T12:14:51.949Z,-0.90
2022-12-03T12:18:57.258Z,-0.80
2022-12-03T12:23:27.993Z,-0.80
2022-12-03T12:27:47.296Z,-0.80
2022-12-03T12:31:53.878Z,-0.80
2022-12-03T12:41:32.641Z,-0.80
2022-12-03T12:45:43.574Z,-0.80
2022-12-03T12:50:13.834Z,-0.80
2022-12-03T12:54:18.446Z,-0.90
2022-12-03T12:58:20.872Z,-0.80
2022-12-03T13:02:33.334Z,-0.90
2022-12-03T13:06:36.613Z,-0.80
2022-12-03T13:10:49.514Z,-0.80
2022-12-03T13:15:17.916Z,-0.80
2022-12-03T13:19:23.007Z,-0.80
2022-12-03T13:23:33.966Z,-0.80
2022-12-03T13:27:36.074Z,-0.90
2022-12-03T13:31:43.425Z,-0.80
2022-12-03T13:35:46.734Z,-0.80
2022-12-03T13:40:21.152Z,-0.80
2022-12-03T13:44:44.358Z,-0.80
2022-12-03T13:48:48.742Z,-0.80
2022-12-03T13:52:53.194Z,-0.80
2022-12-03T13:56:57.232Z,-0.80
2022-12-03T14:00:59.199Z,-0.80
2022-12-03T14:05:01.117Z,-0.80
2022-12-03T14:09:04.122Z,-0.80
2022-12-03T14:13:31.254Z,-0.80
2022-12-03T14:17:33.146Z,-0.70
2022-12-03T14:21:35.487Z,-0.70
2022-12-03T14:25:37.399Z,-0.80
2022-12-03T14:29:44.369Z,-0.60
2022-12-03T14:33:56.889Z,-0.70
2022-12-03T14:37:58.772Z,-0.70
2022-12-03T14:42:13.150Z,-0.70
2022-12-03T14:46:15.155Z,-0.70
2022-12-03T14:50:27.295Z,-0.70
2022-12-03T14:54:29.232Z,-0.70
2022-12-03T14:58:33.999Z,-0.60
2022-12-03T15:02:35.972Z,-0.70
2022-12-03T15:06:41.175Z,-0.70
2022-12-03T15:10:43.239Z,-0.70
2022-12-03T15:14:45.595Z,-0.60
2022-12-03T15:18:48.648Z,-0.60
2022-12-03T15:22:51.964Z,-0.60
2022-12-03T15:26:58.348Z,-0.70
2022-12-03T15:31:00.390Z,-0.60
2022-12-03T15:35:02.478Z,-0.50
2022-12-03T15:39:04.764Z,-0.50
2022-12-03T15:43:09.779Z,-0.60
2022-12-03T15:47:16.924Z,-0.50
2022-12-03T15:51:21.401Z,-0.60
2022-12-03T15:55:23.530Z,-0.50
2022-12-03T15:59:25.889Z,-0.60
2022-12-03T16:03:28.319Z,-0.50
2022-12-03T16:07:30.354Z,-0.50
2022-12-03T16:11:32.580Z,-0.50
2022-12-03T16:15:35.358Z,-0.50
2022-12-03T16:19:53.040Z,-0.50
2022-12-03T16:23:56.017Z,-0.50
2022-12-03T16:28:07.647Z,-0.30
2022-12-03T16:32:09.724Z,-0.30
2022-12-03T16:36:11.631Z,-0.30
2022-12-03T16:40:19.384Z,-0.40
2022-12-03T16:44:32.558Z,-0.50
2022-12-03T16:48:34.678Z,-0.40
2022-12-03T16:52:56.136Z,-0.40
2022-12-03T16:56:58.073Z,-0.40
2022-12-03T17:01:00.092Z,-0.40
2022-12-03T17:05:02.622Z,-0.40
2022-12-03T17:09:06.914Z,-0.40
2022-12-03T17:13:10.376Z,-0.40
2022-12-03T17:17:12.905Z,-0.40
2022-12-03T17:21:15.156Z,-0.40
2022-12-03T17:25:17.676Z,-0.40
2022-12-03T17:29:44.748Z,-0.40
2022-12-03T17:33:46.631Z,-0.40
2022-12-03T17:37:48.583Z,-0.20
2022-12-03T17:41:56.528Z,-0.30
2022-12-03T17:46:00.206Z,-0.20
2022-12-03T17:50:02.382Z,-0.30
2022-12-03T17:54:04.318Z,-0.30
2022-12-03T17:58:06.617Z,-0.30
2022-12-03T18:02:08.584Z,-0.30
2022-12-03T18:06:10.566Z,-0.30
2022-12-03T18:10:12.500Z,-0.20
2022-12-03T18:14:37.369Z,-0.30
2022-12-03T18:18:40.413Z,-0.30
2022-12-03T18:22:45.995Z,-0.20
2022-12-03T18:27:16.248Z,-0.20
2022-12-03T18:31:21.269Z,-0.20
2022-12-03T18:35:23.643Z,-0.20
2022-12-03T18:39:36.817Z,-0.20
2022-12-03T18:43:50.781Z,-0.20
2022-12-03T18:47:55.282Z,-0.20
2022-12-03T18:51:59.511Z,-0.20
2022-12-03T18:56:01.738Z,-0.10
2022-12-03T19:00:13.061Z,-0.20
2022-12-03T19:04:15.879Z,-0.10
2022-12-03T19:08:19.320Z,-0.20
2022-12-03T19:12:21.257Z,-0.10
2022-12-03T19:16:23.838Z,-0.10
2022-12-03T19:20:25.834Z,-0.20
2022-12-03T19:24:32.299Z,-0.10
2022-12-03T19:28:34.620Z,-0.10
2022-12-03T19:32:37.719Z,-0.20
2022-12-03T19:36:39.792Z,-0.10
2022-12-03T19:40:41.883Z,-0.10
2022-12-03T19:45:22.190Z,-0.10
2022-12-03T19:49:24.731Z,0.00
2022-12-03T19:53:29.066Z,-0.10
2022-12-03T19:58:00.115Z,-0.10
2022-12-03T20:02:02.361Z,-0.10
2022-12-03T20:06:09.887Z,-0.10
2022-12-03T20:10:12.517Z,-0.10
2022-12-03T20:14:16.503Z,0.00
2022-12-03T20:18:18.413Z,-0.10
2022-12-03T20:22:20.473Z,-0.10
2022-12-03T20:26:22.480Z,0.00
2022-12-03T20:30:24.970Z,0.00
2022-12-03T20:34:29.345Z,0.00
2022-12-03T20:38:32.513Z,-0.10
2022-12-03T20:42:34.722Z,-0.10
2022-12-03T20:46:37.066Z,-0.10
2022-12-03T20:50:42.398Z,-0.10
2022-12-03T20:54:51.874Z,-0.10
2022-12-03T20:58:55.157Z,-0.10
2022-12-03T21:03:53.214Z,0.00
2022-12-03T21:07:55.501Z,0.00
2022-12-03T21:11:57.589Z,0.10
2022-12-03T21:16:06.465Z,0.00
2022-12-03T21:20:21.600Z,0.00
2022-12-03T21:24:23.484Z,0.00
2022-12-03T21:28:25.399Z,0.10
2022-12-03T21:32:27.468Z,0.00
2022-12-03T21:36:35.540Z,0.00
2022-12-03T21:40:39.862Z,0.00
2022-12-03T21:44:41.869Z,0.20
2022-12-03T21:48:59.526Z,0.10
2022-12-03T21:53:01.752Z,0.20
2022-12-03T21:57:03.757Z,0.10
2022-12-03T22:01:56.749Z,0.10
2022-12-03T22:06:03.279Z,0.10
2022-12-03T22:10:07.553Z,0.10
2022-12-03T22:14:09.980Z,0.10
2022-12-03T22:18:11.886Z,0.10
2022-12-03T22:22:14.115Z,0.20
2022-12-03T22:26:18.104Z,0.20
2022-12-03T22:30:20.063Z,0.20
2022-12-03T22:34:30.284Z,0.20
2022-12-03T22:38:34.816Z,0.20
2022-12-03T22:42:36.719Z,0.20
2022-12-03T22:47:05.042Z,0.20
2022-12-03T22:51:42.399Z,0.20
2022-12-03T22:55:44.816Z,0.20
2022-12-03T22:59:58.234Z,0.30
2022-12-03T23:04:01.142Z,0.30
2022-12-03T23:08:05.394Z,0.30
2022-12-03T23:13:05.076Z,0.30
2022-12-03T23:17:09.093Z,0.30
2022-12-03T23:21:16.055Z,0.30
2022-12-03T23:25:18.586Z,0.40
2022-12-03T23:29:20.533Z,0.40
2022-12-03T23:33:23.373Z,0.30
2022-12-03T23:37:25.204Z,0.30
2022-12-03T23:41:27.437Z,0.40
2022-12-03T23:45:37.083Z,0.40
2022-12-03T23:49:45.270Z,0.40
2022-12-03T23:53:47.976Z,0.40
2022-12-03T23:58:15.864Z,0.40
